sensor_id;sensor_type;location;lat;lon;timestamp;P1;durP1;ratioP1;P2;durP2;ratioP2
4428;SDS011;2227;47.810;8.810;2022-12-29T04:47:10;772.70;;;724.50;;
4428;SDS011;2227;47.810;8.810;2022-12-29T04:49:36;775.42;;;728.60;;
4428;SDS011;2227;47.810;8.810;2022-12-29T04:52:03;775.85;;;727.15;;
4428;SDS011;2227;47.810;8.810;2022-12-29T04:54:30;771.47;;;722.95;;
4428;SDS011;2227;47.810;8.810;2022-12-29T04:56:57;764.73;;;716.70;;
4428;SDS011;2227;47.810;8.810;2022-12-29T04:59:23;770.53;;;720.80;;
4428;SDS011;2227;47.810;8.810;2022-12-29T05:01:50;769.25;;;721.22;;
4428;SDS011;2227;47.810;8.810;2022-12-29T05:04:17;771.28;;;726.28;;
4428;SDS011;2227;47.810;8.810;2022-12-29T05:06:43;771.13;;;726.42;;
4428;SDS011;2227;47.810;8.810;2022-12-29T05:09:10;773.42;;;729.42;;
4428;SDS011;2227;47.810;8.810;2022-12-29T05:11:37;766.10;;;721.50;;
4428;SDS011;2227;47.810;8.810;2022-12-29T05:14:03;775.85;;;731.58;;
4428;SDS011;2227;47.810;8.810;2022-12-29T05:16:30;769.42;;;725.00;;
4428;SDS011;2227;47.810;8.810;2022-12-29T05:18:56;765.30;;;721.10;;
4428;SDS011;2227;47.810;8.810;2022-12-29T05:21:23;771.70;;;727.53;;
4428;SDS011;2227;47.810;8.810;2022-12-29T05:23:50;774.70;;;731.08;;
4428;SDS011;2227;47.810;8.810;2022-12-29T05:26:16;767.65;;;725.10;;
4428;SDS011;2227;47.810;8.810;2022-12-29T05:28:43;786.65;;;741.85;;
4428;SDS011;2227;47.810;8.810;2022-12-29T05:31:10;787.88;;;742.47;;
4428;SDS011;2227;47.810;8.810;2022-12-29T05:33:37;779.92;;;735.38;;
4428;SDS011;2227;47.810;8.810;2022-12-29T05:36:04;780.67;;;735.67;;
4428;SDS011;2227;47.810;8.810;2022-12-29T05:38:32;786.20;;;740.75;;
4428;SDS011;2227;47.810;8.810;2022-12-29T05:40:59;785.67;;;740.00;;
4428;SDS011;2227;47.810;8.810;2022-12-29T05:43:26;779.70;;;734.42;;
4428;SDS011;2227;47.810;8.810;2022-12-29T05:45:53;784.92;;;739.13;;
4428;SDS011;2227;47.810;8.810;2022-12-29T05:48:21;789.25;;;743.65;;
4428;SDS011;2227;47.810;8.810;2022-12-29T05:50:48;779.90;;;734.78;;
4428;SDS011;2227;47.810;8.810;2022-12-29T05:53:15;792.70;;;746.47;;
4428;SDS011;2227;47.810;8.810;2022-12-29T05:55:43;786.45;;;741.35;;
4428;SDS011;2227;47.810;8.810;2022-12-29T05:58:15;782.83;;;738.95;;
4428;SDS011;2227;47.810;8.810;2022-12-29T06:00:42;779.20;;;735.95;;
4428;SDS011;2227;47.810;8.810;2022-12-29T06:03:09;782.22;;;738.65;;
4428;SDS011;2227;47.810;8.810;2022-12-29T06:05:36;781.90;;;739.05;;
4428;SDS011;2227;47.810;8.810;2022-12-29T06:08:03;796.88;;;753.65;;
4428;SDS011;2227;47.810;8.810;2022-12-29T06:10:30;802.57;;;758.37;;
4428;SDS011;2227;47.810;8.810;2022-12-29T06:12:56;803.25;;;758.25;;
4428;SDS011;2227;47.810;8.810;2022-12-29T06:15:23;786.30;;;740.70;;
4428;SDS011;2227;47.810;8.810;2022-12-29T06:17:50;792.47;;;746.58;;
4428;SDS011;2227;47.810;8.810;2022-12-29T06:20:16;794.53;;;748.70;;
4428;SDS011;2227;47.810;8.810;2022-12-29T06:22:43;792.17;;;747.75;;
4428;SDS011;2227;47.810;8.810;2022-12-29T06:25:11;794.97;;;750.42;;
4428;SDS011;2227;47.810;8.810;2022-12-29T06:27:38;799.83;;;754.78;;
4428;SDS011;2227;47.810;8.810;2022-12-29T06:30:05;813.88;;;767.88;;
4428;SDS011;2227;47.810;8.810;2022-12-29T06:32:32;795.97;;;750.72;;
4428;SDS011;2227;47.810;8.810;2022-12-29T06:34:59;799.22;;;752.75;;
4428;SDS011;2227;47.810;8.810;2022-12-29T06:37:26;797.15;;;750.05;;
4428;SDS011;2227;47.810;8.810;2022-12-29T06:39:53;801.88;;;754.17;;
4428;SDS011;2227;47.810;8.810;2022-12-29T06:42:20;786.78;;;738.38;;
4428;SDS011;2227;47.810;8.810;2022-12-29T06:44:46;786.17;;;739.50;;
4428;SDS011;2227;47.810;8.810;2022-12-29T06:47:13;795.95;;;749.03;;
4428;SDS011;2227;47.810;8.810;2022-12-29T06:49:39;792.17;;;745.20;;
4428;SDS011;2227;47.810;8.810;2022-12-29T06:52:06;797.05;;;750.05;;
4428;SDS011;2227;47.810;8.810;2022-12-29T06:54:38;797.60;;;751.10;;
4428;SDS011;2227;47.810;8.810;2022-12-29T06:57:05;798.78;;;751.85;;
4428;SDS011;2227;47.810;8.810;2022-12-29T06:59:32;798.45;;;751.22;;
4428;SDS011;2227;47.810;8.810;2022-12-29T07:01:59;802.90;;;755.60;;
4428;SDS011;2227;47.810;8.810;2022-12-29T07:04:28;785.85;;;738.53;;
4428;SDS011;2227;47.810;8.810;2022-12-29T07:06:55;803.08;;;754.88;;
4428;SDS011;2227;47.810;8.810;2022-12-29T07:09:22;797.97;;;749.78;;
4428;SDS011;2227;47.810;8.810;2022-12-29T07:11:48;788.92;;;742.63;;
4428;SDS011;2227;47.810;8.810;2022-12-29T07:14:15;789.92;;;744.00;;
4428;SDS011;2227;47.810;8.810;2022-12-29T07:16:42;791.28;;;745.03;;
4428;SDS011;2227;47.810;8.810;2022-12-29T07:19:09;793.55;;;747.00;;
4428;SDS011;2227;47.810;8.810;2022-12-29T07:21:35;794.10;;;748.80;;
4428;SDS011;2227;47.810;8.810;2022-12-29T07:24:02;783.55;;;739.33;;
4428;SDS011;2227;47.810;8.810;2022-12-29T07:26:29;770.28;;;729.17;;
4428;SDS011;2227;47.810;8.810;2022-12-29T07:29:02;771.20;;;730.38;;
4428;SDS011;2227;47.810;8.810;2022-12-29T07:31:29;782.27;;;740.30;;
4428;SDS011;2227;47.810;8.810;2022-12-29T07:33:56;776.85;;;735.60;;
4428;SDS011;2227;47.810;8.810;2022-12-29T07:36:23;779.75;;;737.75;;
4428;SDS011;2227;47.810;8.810;2022-12-29T07:38:55;778.00;;;735.65;;
4428;SDS011;2227;47.810;8.810;2022-12-29T07:41:22;777.92;;;735.17;;
4428;SDS011;2227;47.810;8.810;2022-12-29T07:43:49;779.95;;;737.35;;
4428;SDS011;2227;47.810;8.810;2022-12-29T07:46:15;780.17;;;736.78;;
4428;SDS011;2227;47.810;8.810;2022-12-29T07:49:02;781.08;;;736.55;;
4428;SDS011;2227;47.810;8.810;2022-12-29T07:51:29;775.75;;;732.20;;
4428;SDS011;2227;47.810;8.810;2022-12-29T07:53:55;776.42;;;733.10;;
4428;SDS011;2227;47.810;8.810;2022-12-29T07:56:22;778.55;;;734.35;;
4428;SDS011;2227;47.810;8.810;2022-12-29T07:58:49;773.47;;;730.72;;
4428;SDS011;2227;47.810;8.810;2022-12-29T08:01:15;774.67;;;731.67;;
4428;SDS011;2227;47.810;8.810;2022-12-29T08:03:42;773.60;;;729.00;;
4428;SDS011;2227;47.810;8.810;2022-12-29T08:06:10;780.63;;;735.65;;
4428;SDS011;2227;47.810;8.810;2022-12-29T08:08:37;775.25;;;730.05;;
4428;SDS011;2227;47.810;8.810;2022-12-29T08:11:04;781.47;;;736.13;;
4428;SDS011;2227;47.810;8.810;2022-12-29T08:13:30;781.73;;;735.90;;
4428;SDS011;2227;47.810;8.810;2022-12-29T08:15:57;774.85;;;730.40;;
4428;SDS011;2227;47.810;8.810;2022-12-29T08:18:24;782.80;;;737.60;;
4428;SDS011;2227;47.810;8.810;2022-12-29T08:20:51;780.15;;;735.30;;
4428;SDS011;2227;47.810;8.810;2022-12-29T08:23:21;782.40;;;737.47;;
4428;SDS011;2227;47.810;8.810;2022-12-29T08:25:56;787.87;;;741.50;;
4428;SDS011;2227;47.810;8.810;2022-12-29T08:28:23;777.25;;;732.95;;
4428;SDS011;2227;47.810;8.810;2022-12-29T08:30:50;782.40;;;736.88;;
4428;SDS011;2227;47.810;8.810;2022-12-29T08:33:17;791.15;;;745.55;;
4428;SDS011;2227;47.810;8.810;2022-12-29T08:35:44;794.65;;;749.13;;
4428;SDS011;2227;47.810;8.810;2022-12-29T08:38:11;801.60;;;755.63;;
4428;SDS011;2227;47.810;8.810;2022-12-29T08:40:37;802.83;;;756.30;;
4428;SDS011;2227;47.810;8.810;2022-12-29T08:43:04;811.08;;;763.13;;
4428;SDS011;2227;47.810;8.810;2022-12-29T08:45:31;822.53;;;772.58;;
4428;SDS011;2227;47.810;8.810;2022-12-29T08:47:58;822.10;;;772.92;;
4428;SDS011;2227;47.810;8.810;2022-12-29T08:50:25;837.83;;;788.75;;
4428;SDS011;2227;47.810;8.810;2022-12-29T08:52:51;826.85;;;777.45;;
4428;SDS011;2227;47.810;8.810;2022-12-29T08:55:18;837.63;;;788.60;;
4428;SDS011;2227;47.810;8.810;2022-12-29T08:57:44;843.38;;;794.65;;
4428;SDS011;2227;47.810;8.810;2022-12-29T09:00:11;853.38;;;804.58;;
4428;SDS011;2227;47.810;8.810;2022-12-29T09:02:38;842.97;;;792.67;;
4428;SDS011;2227;47.810;8.810;2022-12-29T09:05:05;855.45;;;804.55;;
4428;SDS011;2227;47.810;8.810;2022-12-29T09:07:32;857.63;;;806.72;;
4428;SDS011;2227;47.810;8.810;2022-12-29T09:09:59;869.42;;;818.45;;
4428;SDS011;2227;47.810;8.810;2022-12-29T09:12:26;873.67;;;822.13;;
4428;SDS011;2227;47.810;8.810;2022-12-29T09:15:01;876.42;;;826.10;;
4428;SDS011;2227;47.810;8.810;2022-12-29T09:17:28;869.78;;;818.17;;
4428;SDS011;2227;47.810;8.810;2022-12-29T09:20:13;874.42;;;823.53;;
4428;SDS011;2227;47.810;8.810;2022-12-29T09:22:43;865.38;;;815.05;;
4428;SDS011;2227;47.810;8.810;2022-12-29T09:25:11;871.30;;;820.97;;
4428;SDS011;2227;47.810;8.810;2022-12-29T09:27:40;864.75;;;815.58;;
4428;SDS011;2227;47.810;8.810;2022-12-29T09:30:08;866.73;;;818.13;;
4428;SDS011;2227;47.810;8.810;2022-12-29T09:32:36;864.72;;;816.50;;
4428;SDS011;2227;47.810;8.810;2022-12-29T09:35:10;864.57;;;816.83;;
4428;SDS011;2227;47.810;8.810;2022-12-29T09:37:37;865.03;;;817.58;;
4428;SDS011;2227;47.810;8.810;2022-12-29T09:40:04;868.33;;;820.50;;
4428;SDS011;2227;47.810;8.810;2022-12-29T09:42:34;870.63;;;822.03;;
4428;SDS011;2227;47.810;8.810;2022-12-29T09:45:18;868.58;;;820.03;;
4428;SDS011;2227;47.810;8.810;2022-12-29T09:47:55;865.67;;;816.20;;
4428;SDS011;2227;47.810;8.810;2022-12-29T09:50:31;870.97;;;820.55;;
4428;SDS011;2227;47.810;8.810;2022-12-29T09:53:05;863.60;;;813.67;;
4428;SDS011;2227;47.810;8.810;2022-12-29T09:55:47;873.90;;;823.83;;
4428;SDS011;2227;47.810;8.810;2022-12-29T09:58:30;862.03;;;815.00;;
4428;SDS011;2227;47.810;8.810;2022-12-29T10:03:47;860.85;;;814.65;;
4428;SDS011;2227;47.810;8.810;2022-12-29T10:14:37;875.75;;;827.85;;
4428;SDS011;2227;47.810;8.810;2022-12-29T10:20:07;873.13;;;824.33;;
4428;SDS011;2227;47.810;8.810;2022-12-29T10:25:48;865.63;;;819.22;;
4428;SDS011;2227;47.810;8.810;2022-12-29T10:30:50;865.17;;;819.60;;
4428;SDS011;2227;47.810;8.810;2022-12-29T10:33:22;869.97;;;824.47;;
4428;SDS011;2227;47.810;8.810;2022-12-29T10:35:52;869.47;;;823.88;;
4428;SDS011;2227;47.810;8.810;2022-12-29T10:38:25;872.65;;;826.83;;
4428;SDS011;2227;47.810;8.810;2022-12-29T10:41:09;880.50;;;834.60;;
4428;SDS011;2227;47.810;8.810;2022-12-29T10:43:51;886.20;;;840.15;;
4428;SDS011;2227;47.810;8.810;2022-12-29T10:46:21;888.80;;;842.70;;
4428;SDS011;2227;47.810;8.810;2022-12-29T10:48:51;886.10;;;839.13;;
4428;SDS011;2227;47.810;8.810;2022-12-29T10:51:22;885.67;;;838.77;;
4428;SDS011;2227;47.810;8.810;2022-12-29T10:54:03;891.78;;;842.72;;
4428;SDS011;2227;47.810;8.810;2022-12-29T10:56:50;889.03;;;840.50;;
4428;SDS011;2227;47.810;8.810;2022-12-29T10:59:25;882.80;;;835.88;;
4428;SDS011;2227;47.810;8.810;2022-12-29T11:04:35;888.35;;;839.70;;
4428;SDS011;2227;47.810;8.810;2022-12-29T11:07:19;888.00;;;839.83;;
4428;SDS011;2227;47.810;8.810;2022-12-29T11:09:52;882.40;;;833.42;;
4428;SDS011;2227;47.810;8.810;2022-12-29T11:12:21;882.03;;;834.40;;
4428;SDS011;2227;47.810;8.810;2022-12-29T11:15:00;885.83;;;838.13;;
4428;SDS011;2227;47.810;8.810;2022-12-29T11:17:27;885.60;;;838.20;;
4428;SDS011;2227;47.810;8.810;2022-12-29T11:19:53;887.92;;;840.42;;
4428;SDS011;2227;47.810;8.810;2022-12-29T11:22:21;897.88;;;849.58;;
4428;SDS011;2227;47.810;8.810;2022-12-29T11:24:50;907.22;;;858.10;;
4428;SDS011;2227;47.810;8.810;2022-12-29T11:29:49;930.45;;;879.58;;
4428;SDS011;2227;47.810;8.810;2022-12-29T11:34:56;950.97;;;898.67;;
4428;SDS011;2227;47.810;8.810;2022-12-29T11:40:06;941.45;;;889.65;;
4428;SDS011;2227;47.810;8.810;2022-12-29T11:42:47;943.33;;;891.13;;
4428;SDS011;2227;47.810;8.810;2022-12-29T11:45:26;945.05;;;891.88;;
4428;SDS011;2227;47.810;8.810;2022-12-29T11:48:00;948.72;;;895.90;;
4428;SDS011;2227;47.810;8.810;2022-12-29T11:50:34;950.70;;;897.45;;
4428;SDS011;2227;47.810;8.810;2022-12-29T11:55:51;935.47;;;884.58;;
4428;SDS011;2227;47.810;8.810;2022-12-29T11:58:30;929.10;;;879.67;;
4428;SDS011;2227;47.810;8.810;2022-12-29T12:01:17;933.65;;;881.85;;
4428;SDS011;2227;47.810;8.810;2022-12-29T12:06:44;930.63;;;878.73;;
4428;SDS011;2227;47.810;8.810;2022-12-29T12:09:25;918.13;;;869.47;;
4428;SDS011;2227;47.810;8.810;2022-12-29T12:12:04;923.47;;;874.88;;
4428;SDS011;2227;47.810;8.810;2022-12-29T12:14:37;916.73;;;868.93;;
4428;SDS011;2227;47.810;8.810;2022-12-29T12:17:16;924.25;;;876.47;;
4428;SDS011;2227;47.810;8.810;2022-12-29T12:22:21;926.70;;;877.55;;
4428;SDS011;2227;47.810;8.810;2022-12-29T12:24:54;925.17;;;876.58;;
4428;SDS011;2227;47.810;8.810;2022-12-29T12:27:33;926.83;;;877.28;;
4428;SDS011;2227;47.810;8.810;2022-12-29T12:30:21;924.13;;;873.67;;
4428;SDS011;2227;47.810;8.810;2022-12-29T12:43:38;922.67;;;872.58;;
4428;SDS011;2227;47.810;8.810;2022-12-29T12:57:05;940.05;;;886.60;;
4428;SDS011;2227;47.810;8.810;2022-12-29T12:59:56;941.40;;;887.90;;
4428;SDS011;2227;47.810;8.810;2022-12-29T13:02:37;946.15;;;893.05;;
4428;SDS011;2227;47.810;8.810;2022-12-29T13:11:23;945.00;;;891.60;;
4428;SDS011;2227;47.810;8.810;2022-12-29T13:16:46;948.35;;;895.72;;
4428;SDS011;2227;47.810;8.810;2022-12-29T13:38:40;946.28;;;894.95;;
4428;SDS011;2227;47.810;8.810;2022-12-29T13:41:11;950.13;;;899.42;;
4428;SDS011;2227;47.810;8.810;2022-12-29T13:43:45;942.80;;;891.50;;
4428;SDS011;2227;47.810;8.810;2022-12-29T13:46:15;949.17;;;897.27;;
4428;SDS011;2227;47.810;8.810;2022-12-29T13:48:49;950.60;;;899.72;;
4428;SDS011;2227;47.810;8.810;2022-12-29T13:51:19;955.00;;;904.65;;
4428;SDS011;2227;47.810;8.810;2022-12-29T13:53:55;959.05;;;908.25;;
4428;SDS011;2227;47.810;8.810;2022-12-29T13:56:38;961.03;;;910.03;;
4428;SDS011;2227;47.810;8.810;2022-12-29T13:59:15;962.13;;;910.20;;
4428;SDS011;2227;47.810;8.810;2022-12-29T14:01:49;957.53;;;905.97;;
4428;SDS011;2227;47.810;8.810;2022-12-29T14:04:31;952.97;;;902.17;;
4428;SDS011;2227;47.810;8.810;2022-12-29T14:07:03;957.00;;;906.50;;
4428;SDS011;2227;47.810;8.810;2022-12-29T14:09:40;956.15;;;905.25;;
4428;SDS011;2227;47.810;8.810;2022-12-29T14:15:23;946.22;;;895.30;;
4428;SDS011;2227;47.810;8.810;2022-12-29T14:18:02;945.37;;;895.07;;
4428;SDS011;2227;47.810;8.810;2022-12-29T14:20:46;942.70;;;893.42;;
4428;SDS011;2227;47.810;8.810;2022-12-29T14:28:31;931.80;;;884.63;;
4428;SDS011;2227;47.810;8.810;2022-12-29T14:31:33;930.42;;;882.10;;
4428;SDS011;2227;47.810;8.810;2022-12-29T14:36:39;913.03;;;864.65;;
4428;SDS011;2227;47.810;8.810;2022-12-29T14:49:49;898.72;;;850.25;;
4428;SDS011;2227;47.810;8.810;2022-12-29T14:52:18;901.63;;;853.42;;
4428;SDS011;2227;47.810;8.810;2022-12-29T14:54:50;901.03;;;851.95;;
4428;SDS011;2227;47.810;8.810;2022-12-29T14:57:20;891.13;;;844.30;;
4428;SDS011;2227;47.810;8.810;2022-12-29T14:59:57;893.95;;;845.78;;
4428;SDS011;2227;47.810;8.810;2022-12-29T15:02:32;889.83;;;842.50;;
4428;SDS011;2227;47.810;8.810;2022-12-29T15:05:04;891.67;;;844.60;;
4428;SDS011;2227;47.810;8.810;2022-12-29T15:07:32;900.65;;;852.70;;
4428;SDS011;2227;47.810;8.810;2022-12-29T15:10:05;894.53;;;847.85;;
4428;SDS011;2227;47.810;8.810;2022-12-29T15:12:38;907.35;;;857.78;;
4428;SDS011;2227;47.810;8.810;2022-12-29T15:15:28;897.03;;;849.25;;
4428;SDS011;2227;47.810;8.810;2022-12-29T15:17:56;893.63;;;845.72;;
4428;SDS011;2227;47.810;8.810;2022-12-29T15:20:26;899.03;;;850.92;;
4428;SDS011;2227;47.810;8.810;2022-12-29T15:22:58;902.40;;;853.17;;
4428;SDS011;2227;47.810;8.810;2022-12-29T15:25:29;902.50;;;852.85;;
4428;SDS011;2227;47.810;8.810;2022-12-29T15:27:58;896.00;;;846.37;;
4428;SDS011;2227;47.810;8.810;2022-12-29T15:30:30;896.10;;;847.88;;
4428;SDS011;2227;47.810;8.810;2022-12-29T15:32:58;900.20;;;849.60;;
4428;SDS011;2227;47.810;8.810;2022-12-29T15:35:32;895.50;;;846.20;;
4428;SDS011;2227;47.810;8.810;2022-12-29T15:38:12;905.10;;;853.92;;
4428;SDS011;2227;47.810;8.810;2022-12-29T15:40:43;897.40;;;847.92;;
4428;SDS011;2227;47.810;8.810;2022-12-29T15:46:08;893.38;;;845.03;;
4428;SDS011;2227;47.810;8.810;2022-12-29T15:48:37;896.75;;;847.85;;
4428;SDS011;2227;47.810;8.810;2022-12-29T15:51:11;892.67;;;843.63;;
4428;SDS011;2227;47.810;8.810;2022-12-29T15:53:47;894.72;;;845.97;;
4428;SDS011;2227;47.810;8.810;2022-12-29T15:56:15;899.00;;;848.63;;
4428;SDS011;2227;47.810;8.810;2022-12-29T15:58:44;900.60;;;850.08;;
4428;SDS011;2227;47.810;8.810;2022-12-29T16:01:17;893.05;;;843.50;;
4428;SDS011;2227;47.810;8.810;2022-12-29T16:03:51;887.63;;;838.72;;
4428;SDS011;2227;47.810;8.810;2022-12-29T16:08:59;884.90;;;835.80;;
4428;SDS011;2227;47.810;8.810;2022-12-29T16:11:33;881.22;;;833.83;;
4428;SDS011;2227;47.810;8.810;2022-12-29T16:14:06;889.92;;;839.75;;
4428;SDS011;2227;47.810;8.810;2022-12-29T16:16:36;887.55;;;837.55;;
4428;SDS011;2227;47.810;8.810;2022-12-29T16:19:18;876.90;;;829.60;;
4428;SDS011;2227;47.810;8.810;2022-12-29T16:21:46;886.25;;;835.70;;
4428;SDS011;2227;47.810;8.810;2022-12-29T16:24:20;883.10;;;833.50;;
4428;SDS011;2227;47.810;8.810;2022-12-29T16:26:55;886.77;;;837.27;;
4428;SDS011;2227;47.810;8.810;2022-12-29T16:29:29;881.03;;;830.40;;
4428;SDS011;2227;47.810;8.810;2022-12-29T16:31:57;880.50;;;829.35;;
4428;SDS011;2227;47.810;8.810;2022-12-29T16:34:31;881.20;;;830.53;;
4428;SDS011;2227;47.810;8.810;2022-12-29T16:39:55;879.03;;;829.92;;
4428;SDS011;2227;47.810;8.810;2022-12-29T16:42:36;881.67;;;833.80;;
4428;SDS011;2227;47.810;8.810;2022-12-29T16:50:36;881.78;;;831.63;;
4428;SDS011;2227;47.810;8.810;2022-12-29T16:53:05;887.00;;;836.50;;
4428;SDS011;2227;47.810;8.810;2022-12-29T16:55:48;884.35;;;833.80;;
4428;SDS011;2227;47.810;8.810;2022-12-29T16:58:17;883.15;;;832.85;;
4428;SDS011;2227;47.810;8.810;2022-12-29T17:00:47;878.13;;;828.13;;
4428;SDS011;2227;47.810;8.810;2022-12-29T17:03:14;874.20;;;822.88;;
4428;SDS011;2227;47.810;8.810;2022-12-29T17:05:42;871.58;;;822.67;;
4428;SDS011;2227;47.810;8.810;2022-12-29T17:08:15;876.38;;;826.75;;
4428;SDS011;2227;47.810;8.810;2022-12-29T17:10:51;877.10;;;826.70;;
4428;SDS011;2227;47.810;8.810;2022-12-29T17:13:39;878.60;;;827.42;;
4428;SDS011;2227;47.810;8.810;2022-12-29T17:16:06;877.88;;;827.97;;
4428;SDS011;2227;47.810;8.810;2022-12-29T17:18:35;872.72;;;822.33;;
4428;SDS011;2227;47.810;8.810;2022-12-29T17:21:02;887.23;;;836.77;;
4428;SDS011;2227;47.810;8.810;2022-12-29T17:23:29;883.83;;;832.90;;
4428;SDS011;2227;47.810;8.810;2022-12-29T17:25:58;882.67;;;831.15;;
4428;SDS011;2227;47.810;8.810;2022-12-29T17:28:26;884.77;;;832.07;;
4428;SDS011;2227;47.810;8.810;2022-12-29T17:30:57;872.83;;;823.80;;
4428;SDS011;2227;47.810;8.810;2022-12-29T17:33:27;865.38;;;819.03;;
4428;SDS011;2227;47.810;8.810;2022-12-29T17:36:00;875.85;;;828.88;;
4428;SDS011;2227;47.810;8.810;2022-12-29T17:38:28;867.78;;;822.80;;
4428;SDS011;2227;47.810;8.810;2022-12-29T17:40:56;852.88;;;811.10;;
4428;SDS011;2227;47.810;8.810;2022-12-29T17:43:24;860.28;;;816.33;;
4428;SDS011;2227;47.810;8.810;2022-12-29T17:45:59;868.72;;;822.78;;
4428;SDS011;2227;47.810;8.810;2022-12-29T17:48:26;858.57;;;814.00;;
4428;SDS011;2227;47.810;8.810;2022-12-29T17:50:53;857.22;;;812.70;;
4428;SDS011;2227;47.810;8.810;2022-12-29T17:53:23;851.70;;;807.78;;
4428;SDS011;2227;47.810;8.810;2022-12-29T17:55:53;846.88;;;803.67;;
4428;SDS011;2227;47.810;8.810;2022-12-29T17:58:20;847.45;;;804.95;;
4428;SDS011;2227;47.810;8.810;2022-12-29T18:00:53;844.63;;;803.73;;
4428;SDS011;2227;47.810;8.810;2022-12-29T18:03:26;833.90;;;795.27;;
4428;SDS011;2227;47.810;8.810;2022-12-29T18:05:55;843.90;;;801.80;;
4428;SDS011;2227;47.810;8.810;2022-12-29T18:08:22;840.67;;;798.28;;
4428;SDS011;2227;47.810;8.810;2022-12-29T18:10:49;845.10;;;800.80;;
4428;SDS011;2227;47.810;8.810;2022-12-29T18:13:22;843.38;;;800.83;;
4428;SDS011;2227;47.810;8.810;2022-12-29T18:16:11;848.65;;;805.08;;
4428;SDS011;2227;47.810;8.810;2022-12-29T18:18:38;843.72;;;802.28;;
4428;SDS011;2227;47.810;8.810;2022-12-29T18:21:05;840.63;;;798.45;;
4428;SDS011;2227;47.810;8.810;2022-12-29T18:23:32;846.37;;;802.57;;
4428;SDS011;2227;47.810;8.810;2022-12-29T18:26:02;850.33;;;806.58;;
4428;SDS011;2227;47.810;8.810;2022-12-29T18:28:32;829.43;;;785.20;;
4428;SDS011;2227;47.810;8.810;2022-12-29T18:30:59;843.88;;;798.42;;
4428;SDS011;2227;47.810;8.810;2022-12-29T18:33:27;831.88;;;787.67;;
4428;SDS011;2227;47.810;8.810;2022-12-29T18:35:55;838.67;;;794.83;;
4428;SDS011;2227;47.810;8.810;2022-12-29T18:38:26;844.50;;;799.22;;
4428;SDS011;2227;47.810;8.810;2022-12-29T18:40:55;838.57;;;793.37;;
4428;SDS011;2227;47.810;8.810;2022-12-29T18:43:22;840.13;;;795.35;;
4428;SDS011;2227;47.810;8.810;2022-12-29T18:45:49;842.53;;;797.75;;
4428;SDS011;2227;47.810;8.810;2022-12-29T18:48:16;848.63;;;802.92;;
4428;SDS011;2227;47.810;8.810;2022-12-29T18:50:45;852.75;;;807.60;;
4428;SDS011;2227;47.810;8.810;2022-12-29T18:53:21;839.90;;;796.00;;
4428;SDS011;2227;47.810;8.810;2022-12-29T18:55:49;841.92;;;796.80;;
4428;SDS011;2227;47.810;8.810;2022-12-29T18:58:17;842.75;;;797.85;;
4428;SDS011;2227;47.810;8.810;2022-12-29T19:00:44;834.67;;;792.45;;
4428;SDS011;2227;47.810;8.810;2022-12-29T19:03:12;813.30;;;772.83;;
4428;SDS011;2227;47.810;8.810;2022-12-29T19:05:41;829.92;;;787.13;;
4428;SDS011;2227;47.810;8.810;2022-12-29T19:08:09;822.88;;;779.92;;
4428;SDS011;2227;47.810;8.810;2022-12-29T19:10:37;828.13;;;783.83;;
4428;SDS011;2227;47.810;8.810;2022-12-29T19:13:04;812.05;;;770.65;;
4428;SDS011;2227;47.810;8.810;2022-12-29T19:15:32;813.40;;;769.28;;
4428;SDS011;2227;47.810;8.810;2022-12-29T19:18:03;808.03;;;765.25;;
4428;SDS011;2227;47.810;8.810;2022-12-29T19:20:51;813.40;;;769.10;;
4428;SDS011;2227;47.810;8.810;2022-12-29T19:23:21;817.42;;;773.70;;
4428;SDS011;2227;47.810;8.810;2022-12-29T19:25:50;808.08;;;766.58;;
4428;SDS011;2227;47.810;8.810;2022-12-29T19:28:27;817.83;;;774.60;;
4428;SDS011;2227;47.810;8.810;2022-12-29T19:30:54;825.10;;;780.80;;
4428;SDS011;2227;47.810;8.810;2022-12-29T19:33:25;820.78;;;775.55;;
4428;SDS011;2227;47.810;8.810;2022-12-29T19:35:56;820.97;;;775.83;;
4428;SDS011;2227;47.810;8.810;2022-12-29T19:38:25;826.90;;;781.25;;
4428;SDS011;2227;47.810;8.810;2022-12-29T19:40:51;819.22;;;774.42;;
4428;SDS011;2227;47.810;8.810;2022-12-29T19:43:18;819.72;;;774.67;;
4428;SDS011;2227;47.810;8.810;2022-12-29T19:45:45;824.53;;;779.00;;
4428;SDS011;2227;47.810;8.810;2022-12-29T19:48:17;819.75;;;774.00;;
4428;SDS011;2227;47.810;8.810;2022-12-29T19:50:45;820.95;;;775.55;;
4428;SDS011;2227;47.810;8.810;2022-12-29T19:53:12;826.80;;;780.65;;
4428;SDS011;2227;47.810;8.810;2022-12-29T19:55:45;823.53;;;778.03;;
4428;SDS011;2227;47.810;8.810;2022-12-29T19:58:13;825.00;;;779.63;;
4428;SDS011;2227;47.810;8.810;2022-12-29T20:00:41;820.50;;;775.58;;
4428;SDS011;2227;47.810;8.810;2022-12-29T20:03:08;829.65;;;782.67;;
4428;SDS011;2227;47.810;8.810;2022-12-29T20:05:36;830.10;;;781.38;;
4428;SDS011;2227;47.810;8.810;2022-12-29T20:08:03;822.53;;;776.00;;
4428;SDS011;2227;47.810;8.810;2022-12-29T20:10:30;829.97;;;781.07;;
4428;SDS011;2227;47.810;8.810;2022-12-29T20:12:56;824.60;;;776.10;;
4428;SDS011;2227;47.810;8.810;2022-12-29T20:15:23;820.90;;;773.90;;
4428;SDS011;2227;47.810;8.810;2022-12-29T20:17:50;826.38;;;779.78;;
4428;SDS011;2227;47.810;8.810;2022-12-29T20:20:36;828.55;;;781.88;;
4428;SDS011;2227;47.810;8.810;2022-12-29T20:23:03;817.90;;;771.10;;
4428;SDS011;2227;47.810;8.810;2022-12-29T20:25:30;830.50;;;783.88;;
4428;SDS011;2227;47.810;8.810;2022-12-29T20:28:11;810.70;;;764.70;;
4428;SDS011;2227;47.810;8.810;2022-12-29T20:30:38;822.60;;;775.60;;
4428;SDS011;2227;47.810;8.810;2022-12-29T20:33:04;837.40;;;788.67;;
4428;SDS011;2227;47.810;8.810;2022-12-29T20:35:33;827.75;;;778.63;;
4428;SDS011;2227;47.810;8.810;2022-12-29T20:38:00;831.17;;;781.88;;
4428;SDS011;2227;47.810;8.810;2022-12-29T20:40:27;830.10;;;780.57;;
4428;SDS011;2227;47.810;8.810;2022-12-29T20:42:54;826.60;;;776.90;;
4428;SDS011;2227;47.810;8.810;2022-12-29T20:45:21;827.80;;;779.10;;
4428;SDS011;2227;47.810;8.810;2022-12-29T20:47:47;823.85;;;773.75;;
4428;SDS011;2227;47.810;8.810;2022-12-29T20:50:14;818.97;;;768.88;;
4428;SDS011;2227;47.810;8.810;2022-12-29T20:52:41;814.53;;;765.42;;
4428;SDS011;2227;47.810;8.810;2022-12-29T20:55:08;816.80;;;767.60;;
4428;SDS011;2227;47.810;8.810;2022-12-29T20:57:34;820.22;;;772.47;;
4428;SDS011;2227;47.810;8.810;2022-12-29T21:00:21;809.47;;;759.95;;
4428;SDS011;2227;47.810;8.810;2022-12-29T21:02:49;813.60;;;765.95;;
4428;SDS011;2227;47.810;8.810;2022-12-29T21:05:17;814.78;;;765.95;;
4428;SDS011;2227;47.810;8.810;2022-12-29T21:07:49;816.08;;;765.10;;
4428;SDS011;2227;47.810;8.810;2022-12-29T21:10:16;808.33;;;758.03;;
4428;SDS011;2227;47.810;8.810;2022-12-29T21:12:43;811.58;;;760.60;;
4428;SDS011;2227;47.810;8.810;2022-12-29T21:15:10;815.28;;;764.97;;
4428;SDS011;2227;47.810;8.810;2022-12-29T21:17:40;814.05;;;764.83;;
4428;SDS011;2227;47.810;8.810;2022-12-29T21:20:07;813.08;;;763.72;;
4428;SDS011;2227;47.810;8.810;2022-12-29T21:22:35;807.83;;;759.55;;
4428;SDS011;2227;47.810;8.810;2022-12-29T21:25:01;810.05;;;759.63;;
4428;SDS011;2227;47.810;8.810;2022-12-29T21:27:28;807.25;;;758.13;;
4428;SDS011;2227;47.810;8.810;2022-12-29T21:29:55;807.30;;;757.38;;